Time;durP1;ratioP1;P1;durP2;ratioP2;P2;SDS_P1;SDS_P2;PMS_P1;PMS_P2;Temp;Humidity;BMP_temperature;BMP_pressure;BME280_temperature;BME280_humidity;BME280_pressure;Samples;Min_cycle;Max_cycle;Signal;HPM_P1;HPM_P2
2021/08/24 00:00:22;;;;;;;6.18;3.60;;;;;;;13.93;85.16;101845.75;695001;28;1558;-56
2021/08/24 00:00:42;;;;;;;6.15;3.28;;;;;;;13.89;84.64;101852.72;698541;28;1067;-58
2021/08/24 00:01:03;;;;;;;5.17;3.30;;;;;;;13.88;84.55;101847.47;700177;28;4457;-53
2021/08/24 00:01:24;;;;;;;5.60;3.35;;;;;;;13.86;84.13;101854.47;699283;28;1841;-57
2021/08/24 00:01:44;;;;;;;6.63;3.60;;;;;;;13.87;85.00;101854.47;700537;28;3858;-55
2021/08/24 00:02:04;;;;;;;6.13;3.40;;;;;;;13.91;84.82;101848.34;700131;28;4388;-54
2021/08/24 00:02:25;;;;;;;6.47;3.50;;;;;;;13.90;84.53;101849.25;700854;28;1893;-53
2021/08/24 00:02:45;;;;;;;4.68;3.30;;;;;;;13.84;84.06;101841.34;700731;28;1597;-58
2021/08/24 00:03:06;;;;;;;5.90;3.40;;;;;;;13.88;84.37;101856.22;701084;28;1621;-57
2021/08/24 00:03:26;;;;;;;6.35;3.50;;;;;;;13.88;84.58;101850.97;701059;28;1383;-55
2021/08/24 00:03:47;;;;;;;5.40;3.50;;;;;;;13.89;84.70;101851.88;700670;28;1322;-57
2021/08/24 00:04:08;;;;;;;4.88;3.50;;;;;;;13.91;85.11;101850.97;700223;28;4334;-58
2021/08/24 00:04:28;;;;;;;5.28;3.50;;;;;;;13.83;83.80;101846.59;699692;28;1596;-57
2021/08/24 00:04:49;;;;;;;5.60;3.47;;;;;;;13.80;84.42;101852.72;699413;28;4061;-58
2021/08/24 00:05:11;;;;;;;5.27;3.40;;;;;;;13.84;84.73;101853.59;700696;28;5011;-55
2021/08/24 00:05:36;;;;;;;4.90;3.42;;;;;;;13.88;84.80;101853.59;699446;28;1148;-55
2021/08/24 00:05:56;;;;;;;6.47;3.50;;;;;;;13.90;84.62;101849.25;699068;28;1097;-57
2021/08/24 00:06:17;;;;;;;7.60;3.63;;;;;;;13.88;84.50;101850.97;700642;28;1152;-53
2021/08/24 00:06:37;;;;;;;6.17;3.37;;;;;;;13.79;85.11;101853.63;697736;28;1241;-58
2021/08/24 00:06:57;;;;;;;5.13;3.47;;;;;;;13.81;85.46;101845.72;693372;28;4283;-54
2021/08/24 00:07:18;;;;;;;5.67;3.77;;;;;;;13.85;85.26;101850.13;695019;28;1576;-56
2021/08/24 00:07:38;;;;;;;5.90;3.50;;;;;;;13.86;85.19;101844.84;694797;28;4035;-53
2021/08/24 00:07:58;;;;;;;6.25;3.40;;;;;;;13.82;84.40;101852.72;697510;28;4601;-55
2021/08/24 00:08:19;;;;;;;5.93;3.30;;;;;;;13.82;84.74;101852.72;694608;28;1521;-57
2021/08/24 00:08:41;;;;;;;6.13;3.67;;;;;;;13.87;85.22;101848.34;697059;28;1948;-55
2021/08/24 00:09:05;;;;;;;6.13;3.85;;;;;;;13.79;84.77;101851.84;700472;28;1221;-55
2021/08/24 00:09:25;;;;;;;5.82;3.65;;;;;;;13.83;85.21;101855.38;697395;28;1254;-54
2021/08/24 00:09:46;;;;;;;5.80;3.40;;;;;;;13.84;85.17;101854.47;697931;28;1717;-55
2021/08/24 00:10:07;;;;;;;5.15;3.55;;;;;;;13.84;85.24;101849.22;697253;28;4477;-53
2021/08/24 00:10:34;;;;;;;5.53;3.13;;;;;;;13.88;84.88;101850.97;700131;28;1051;-57
2021/08/24 00:10:57;;;;;;;5.30;3.30;;;;;;;13.90;85.12;101846.59;697424;28;4581;-56
2021/08/24 00:11:17;;;;;;;5.82;3.20;;;;;;;13.89;84.79;101855.38;697722;28;1587;-53
2021/08/24 00:11:38;;;;;;;6.60;3.53;;;;;;;13.89;84.99;101849.25;700165;28;1582;-53
2021/08/24 00:11:58;;;;;;;6.33;3.60;;;;;;;13.92;84.82;101850.09;700832;28;1594;-55
2021/08/24 00:12:19;;;;;;;5.50;3.40;;;;;;;13.91;84.46;101852.72;696630;28;1159;-57
2021/08/24 00:12:39;;;;;;;5.80;3.40;;;;;;;13.91;84.56;101848.34;698926;28;892;-54
2021/08/24 00:13:01;;;;;;;5.25;3.53;;;;;;;13.91;84.95;101853.59;700031;28;4472;-54
2021/08/24 00:13:25;;;;;;;5.55;3.60;;;;;;;13.82;84.36;101853.63;699898;28;1551;-56
2021/08/24 00:13:45;;;;;;;5.35;3.38;;;;;;;13.83;84.50;101852.75;698789;28;4241;-56
2021/08/24 00:14:07;;;;;;;5.43;3.22;;;;;;;13.84;84.35;101854.47;699341;28;1783;-56
2021/08/24 00:14:27;;;;;;;5.72;3.20;;;;;;;13.81;84.50;101857.09;699360;28;1668;-55
2021/08/24 00:14:50;;;;;;;6.73;3.40;;;;;;;13.77;84.59;101850.09;700967;28;800;-58
2021/08/24 00:15:12;;;;;;;6.40;3.50;;;;;;;13.82;84.49;101850.09;701496;28;1138;-55
2021/08/24 00:15:33;;;;;;;5.90;3.65;;;;;;;13.81;84.59;101862.38;700901;28;1577;-55
2021/08/24 00:15:54;;;;;;;5.32;3.38;;;;;;;13.82;84.63;101853.63;700580;28;4452;-55
2021/08/24 00:16:17;;;;;;;4.85;3.15;;;;;;;13.83;84.97;101850.13;699150;28;1249;-56
2021/08/24 00:16:41;;;;;;;4.60;3.30;;;;;;;13.85;85.08;101856.22;699584;28;4401;-57
2021/08/24 00:17:01;;;;;;;5.93;3.40;;;;;;;13.81;84.21;101857.09;697173;28;4384;-53
2021/08/24 00:17:22;;;;;;;5.97;3.40;;;;;;;13.79;84.42;101854.47;697509;28;1809;-56
2021/08/24 00:17:43;;;;;;;4.83;3.17;;;;;;;13.75;85.00;101857.13;694876;28;1037;-56
2021/08/24 00:18:03;;;;;;;7.07;3.40;;;;;;;13.77;84.88;101855.34;695226;28;1616;-54
2021/08/24 00:18:24;;;;;;;5.73;3.50;;;;;;;13.82;85.19;101856.25;696177;28;1095;-57
2021/08/24 00:18:45;;;;;;;4.97;3.40;;;;;;;13.84;85.25;101858.88;697507;28;1032;-55
2021/08/24 00:19:05;;;;;;;5.07;3.30;;;;;;;13.78;84.36;101851.84;695721;28;4387;-56
2021/08/24 00:19:26;;;;;;;5.63;3.30;;;;;;;13.79;84.94;101857.09;697006;28;1064;-56
2021/08/24 00:19:46;;;;;;;4.90;3.20;;;;;;;13.79;84.67;101854.47;699166;28;3860;-53
2021/08/24 00:20:07;;;;;;;5.32;3.17;;;;;;;13.82;84.81;101857.97;700593;28;1819;-56
2021/08/24 00:20:31;;;;;;;5.57;3.30;;;;;;;13.78;84.59;101857.13;700536;28;1755;-56
2021/08/24 00:20:52;;;;;;;5.95;3.50;;;;;;;13.73;84.43;101854.47;701003;28;1056;-56
2021/08/24 00:21:13;;;;;;;6.45;3.60;;;;;;;13.78;84.71;101857.97;699385;28;1229;-58
2021/08/24 00:21:33;;;;;;;6.60;3.40;;;;;;;13.75;84.34;101857.13;700051;28;1230;-57
2021/08/24 00:21:53;;;;;;;6.47;3.20;;;;;;;13.78;84.59;101857.13;699628;28;4327;-55
2021/08/24 00:22:14;;;;;;;6.10;3.50;;;;;;;13.75;84.19;101857.13;700249;28;1289;-56
2021/08/24 00:22:36;;;;;;;5.45;3.45;;;;;;;13.71;83.91;101856.22;700433;28;4216;-55
2021/08/24 00:23:07;;;;;;;6.50;3.30;;;;;;;13.79;84.48;101858.88;699636;28;4466;-57
2021/08/24 00:23:28;;;;;;;4.47;3.00;;;;;;;13.77;84.20;101857.97;700214;28;1561;-57
2021/08/24 00:23:49;;;;;;;5.85;3.28;;;;;;;13.73;84.10;101854.47;701020;28;1653;-56
2021/08/24 00:24:10;;;;;;;6.10;3.20;;;;;;;13.66;83.98;101859.72;701095;28;1060;-56
2021/08/24 00:24:30;;;;;;;5.95;3.40;;;;;;;13.69;84.55;101862.34;700441;28;1067;-54
2021/08/24 00:24:51;;;;;;;5.80;3.20;;;;;;;13.75;84.13;101857.13;700053;28;5416;-56
2021/08/24 00:25:13;;;;;;;5.63;3.20;;;;;;;13.74;84.77;101863.25;699667;28;1056;-54
2021/08/24 00:25:35;;;;;;;5.90;3.17;;;;;;;13.76;84.81;101858.84;699619;28;4196;-54
2021/08/24 00:25:57;;;;;;;5.30;3.13;;;;;;;13.75;84.52;101857.13;697254;28;5099;-57
2021/08/24 00:26:17;;;;;;;5.35;3.20;;;;;;;13.73;85.09;101859.72;696653;28;1736;-54
2021/08/24 00:26:38;;;;;;;5.63;3.30;;;;;;;13.72;84.73;101862.34;698640;28;1599;-56
2021/08/24 00:26:58;;;;;;;5.20;3.17;;;;;;;13.73;84.70;101853.59;698007;28;1319;-54
2021/08/24 00:27:19;;;;;;;5.32;3.30;;;;;;;13.76;85.04;101854.47;695309;28;1444;-56
2021/08/24 00:27:40;;;;;;;6.10;3.40;;;;;;;13.73;84.69;101856.22;694803;28;1268;-56
2021/08/24 00:28:00;;;;;;;6.00;3.40;;;;;;;13.76;85.30;101861.47;697430;28;5339;-53
2021/08/24 00:28:21;;;;;;;5.70;3.10;;;;;;;13.73;84.64;101861.47;697365;28;1535;-54
2021/08/24 00:28:41;;;;;;;6.47;3.30;;;;;;;13.72;84.47;101857.97;697912;28;4396;-55
2021/08/24 00:29:02;;;;;;;5.00;3.30;;;;;;;13.73;83.89;101858.84;697353;28;1829;-56
2021/08/24 00:29:23;;;;;;;4.80;3.08;;;;;;;13.75;84.22;101852.72;699577;28;1175;-54
2021/08/24 00:29:43;;;;;;;5.63;3.30;;;;;;;13.79;84.34;101851.00;699924;28;1453;-57
2021/08/24 00:30:05;;;;;;;5.75;3.33;;;;;;;13.76;84.45;101854.47;699823;28;1185;-57
2021/08/24 00:30:26;;;;;;;6.88;3.60;;;;;;;13.71;84.10;101850.97;699421;28;1761;-56
2021/08/24 00:30:46;;;;;;;6.00;3.20;;;;;;;13.75;84.20;101857.97;700675;28;1682;-56
2021/08/24 00:31:07;;;;;;;4.90;3.00;;;;;;;13.70;83.52;101858.84;699612;28;4353;-54
2021/08/24 00:31:27;;;;;;;5.03;2.85;;;;;;;13.67;83.48;101859.72;700670;28;4094;-56
2021/08/24 00:31:47;;;;;;;5.53;3.27;;;;;;;13.69;84.37;101854.47;700470;28;4619;-56
2021/08/24 00:32:08;;;;;;;5.63;3.13;;;;;;;13.71;84.08;101861.47;699526;28;1504;-55
2021/08/24 00:32:29;;;;;;;5.85;3.03;;;;;;;13.73;84.66;101854.47;699184;28;1701;-54
2021/08/24 00:32:50;;;;;;;9.63;3.10;;;;;;;13.70;83.75;101858.84;700569;28;1721;-56
2021/08/24 00:33:11;;;;;;;6.50;3.00;;;;;;;13.68;84.67;101856.22;698032;28;1332;-57
2021/08/24 00:33:32;;;;;;;4.57;3.05;;;;;;;13.59;84.21;101851.81;698225;28;945;-54
2021/08/24 00:33:52;;;;;;;4.30;3.07;;;;;;;13.63;84.46;101853.56;697276;28;4314;-57
2021/08/24 00:34:12;;;;;;;4.90;3.17;;;;;;;13.63;84.45;101856.19;695207;28;1084;-56
2021/08/24 00:34:33;;;;;;;5.60;3.20;;;;;;;13.61;84.80;101852.72;695856;28;4489;-57
2021/08/24 00:34:53;;;;;;;5.87;2.93;;;;;;;13.67;85.22;101854.47;696167;28;1676;-53
2021/08/24 00:35:14;;;;;;;7.20;3.20;;;;;;;13.64;84.32;101859.72;698809;28;2077;-55
2021/08/24 00:35:39;;;;;;;6.55;2.95;;;;;;;13.66;84.80;101854.47;700649;28;1716;-56
2021/08/24 00:36:00;;;;;;;4.75;2.97;;;;;;;13.63;84.59;101858.81;700274;28;1921;-57
2021/08/24 00:36:21;;;;;;;5.85;3.05;;;;;;;13.59;84.15;101859.69;699502;28;1388;-53
2021/08/24 00:36:41;;;;;;;5.60;3.20;;;;;;;13.61;84.55;101852.72;700876;28;1521;-57
2021/08/24 00:37:02;;;;;;;4.60;3.07;;;;;;;13.60;84.23;101857.97;697087;28;4454;-55
2021/08/24 00:37:24;;;;;;;5.10;3.10;;;;;;;13.65;84.28;101855.34;695076;28;2292;-54
2021/08/24 00:37:44;;;;;;;4.93;2.95;;;;;;;13.63;84.27;101861.44;694841;28;4346;-57
2021/08/24 00:38:10;;;;;;;4.47;2.83;;;;;;;13.69;84.33;101854.47;694571;28;1654;-54
2021/08/24 00:38:30;;;;;;;5.40;3.03;;;;;;;13.64;83.78;101854.47;697754;28;1356;-55
2021/08/24 00:38:50;;;;;;;5.23;3.33;;;;;;;13.65;84.36;101850.94;698410;28;939;-58
2021/08/24 00:39:11;;;;;;;6.10;3.23;;;;;;;13.66;84.06;101857.09;695334;28;1619;-54
2021/08/24 00:39:31;;;;;;;7.37;3.20;;;;;;;13.61;83.66;101855.34;697896;28;1447;-58
2021/08/24 00:39:52;;;;;;;5.40;3.20;;;;;;;13.65;84.23;101865.84;697958;28;4575;-56
2021/08/24 00:40:14;;;;;;;4.20;2.90;;;;;;;13.67;84.23;101850.97;698148;28;1865;-52
2021/08/24 00:40:34;;;;;;;4.65;3.10;;;;;;;13.65;85.06;101860.59;694320;28;4435;-55
2021/08/24 00:41:02;;;;;;;5.50;3.17;;;;;;;13.58;84.10;101854.44;693840;28;1647;-57
2021/08/24 00:41:25;;;;;;;5.10;3.15;;;;;;;13.57;84.55;101848.31;698527;28;1796;-58
2021/08/24 00:41:45;;;;;;;5.60;2.95;;;;;;;13.63;84.23;101853.56;695976;28;1536;-56
2021/08/24 00:42:15;;;;;;;5.30;3.10;;;;;;;13.57;84.58;101853.56;696999;28;1634;-55
2021/08/24 00:42:37;;;;;;;6.20;2.92;;;;;;;13.60;84.52;101855.34;699634;28;1493;-57
2021/08/24 00:42:57;;;;;;;5.13;3.05;;;;;;;13.58;84.11;101854.44;699036;28;4296;-57
2021/08/24 00:43:20;;;;;;;5.53;3.20;;;;;;;13.58;84.47;101859.69;698476;28;3884;-55
2021/08/24 00:43:43;;;;;;;4.93;3.08;;;;;;;13.66;84.26;101857.09;699109;28;4154;-56
2021/08/24 00:44:07;;;;;;;5.72;3.08;;;;;;;13.69;83.82;101859.72;699784;28;1311;-54
2021/08/24 00:44:27;;;;;;;6.05;3.10;;;;;;;13.63;83.22;101848.31;700526;28;946;-56
2021/08/24 00:44:48;;;;;;;5.73;3.10;;;;;;;13.62;83.47;101853.56;697912;28;1676;-55
2021/08/24 00:45:13;;;;;;;6.18;2.95;;;;;;;13.68;84.03;101857.97;698349;28;1779;-54
2021/08/24 00:45:38;;;;;;;5.25;3.00;;;;;;;13.68;85.04;101860.59;699114;28;1444;-56
2021/08/24 00:46:12;;;;;;;5.30;3.00;;;;;;;13.64;84.48;101854.47;699429;28;4287;-57
2021/08/24 00:46:49;;;;;;;5.18;3.10;;;;;;;13.67;84.53;101854.47;699314;28;4582;-57
2021/08/24 00:47:15;;;;;;;4.95;3.05;;;;;;;13.71;84.28;101855.34;698963;28;1587;-56
2021/08/24 00:47:39;;;;;;;5.30;2.80;;;;;;;13.64;83.91;101859.72;701086;28;1017;-57
2021/08/24 00:47:59;;;;;;;4.70;3.00;;;;;;;13.66;84.63;101857.09;700301;28;1106;-58
2021/08/24 00:48:24;;;;;;;5.97;3.10;;;;;;;13.65;84.15;101856.19;700875;28;1591;-53
2021/08/24 00:48:44;;;;;;;5.35;3.05;;;;;;;13.59;83.62;101853.56;702444;28;1518;-56
2021/08/24 00:49:10;;;;;;;5.27;3.00;;;;;;;13.58;83.97;101857.06;702578;28;4408;-57
2021/08/24 00:49:31;;;;;;;7.07;3.20;;;;;;;13.59;84.27;101862.31;702510;28;4115;-57
2021/08/24 00:49:52;;;;;;;6.43;3.50;;;;;;;13.58;84.07;101859.69;699674;28;1701;-56
2021/08/24 00:50:26;;;;;;;5.55;3.30;;;;;;;13.59;84.32;101859.69;699881;28;1837;-57
2021/08/24 00:50:48;;;;;;;7.35;3.17;;;;;;;13.62;84.24;101859.72;699603;28;1155;-52
2021/08/24 00:51:11;;;;;;;6.72;3.50;;;;;;;13.60;84.99;101858.81;700406;28;1496;-56
2021/08/24 00:51:35;;;;;;;6.43;3.58;;;;;;;13.59;84.95;101857.06;698064;28;1324;-56
2021/08/24 00:52:12;;;;;;;6.80;3.20;;;;;;;13.55;84.48;101859.69;699992;28;5256;-57
2021/08/24 00:52:33;;;;;;;5.53;2.80;;;;;;;13.60;84.44;101858.81;699715;28;4180;-56
2021/08/24 00:53:01;;;;;;;5.70;3.15;;;;;;;13.57;84.91;101855.34;699041;28;1610;-55
2021/08/24 00:53:26;;;;;;;5.43;3.08;;;;;;;13.59;84.59;101854.44;700392;28;1221;-55
2021/08/24 00:53:49;;;;;;;6.60;3.10;;;;;;;13.59;84.76;101862.31;699893;28;1414;-55
2021/08/24 00:54:15;;;;;;;5.47;3.03;;;;;;;13.62;84.64;101856.19;701692;28;1627;-56
2021/08/24 00:54:37;;;;;;;5.85;3.17;;;;;;;13.61;84.40;101857.09;698738;28;2545;-57
2021/08/24 00:54:57;;;;;;;5.28;2.90;;;;;;;13.60;84.35;101864.09;699778;28;4290;-53
2021/08/24 00:55:21;;;;;;;5.53;2.93;;;;;;;13.63;84.19;101860.59;700777;28;3938;-57
2021/08/24 00:55:44;;;;;;;5.07;3.00;;;;;;;13.63;84.40;101863.22;699631;28;4842;-56
2021/08/24 00:56:06;;;;;;;6.18;3.28;;;;;;;13.63;85.04;101858.81;698924;28;1973;-56
2021/08/24 00:56:30;;;;;;;6.88;3.25;;;;;;;13.59;84.14;101864.94;700374;28;1577;-58
2021/08/24 00:56:56;;;;;;;5.88;3.17;;;;;;;13.65;84.65;101855.34;700001;28;1957;-57
2021/08/24 00:57:20;;;;;;;5.05;3.17;;;;;;;13.64;84.67;101857.09;694182;28;3549;-53
2021/08/24 00:57:44;;;;;;;6.22;3.50;;;;;;;13.65;84.62;101855.34;694767;28;1473;-56
2021/08/24 00:58:10;;;;;;;5.32;3.20;;;;;;;13.63;84.21;101863.22;693682;28;4468;-57
2021/08/24 00:58:30;;;;;;;5.53;3.13;;;;;;;13.67;84.00;101864.97;696251;28;3972;-55
2021/08/24 00:58:51;;;;;;;5.60;3.22;;;;;;;13.66;84.15;101857.09;696192;28;1547;-53
2021/08/24 00:59:11;;;;;;;5.73;3.10;;;;;;;13.63;84.39;101863.22;698056;28;1546;-58
2021/08/24 00:59:31;;;;;;;5.53;2.80;;;;;;;13.65;84.72;101860.59;699673;28;1485;-54
2021/08/24 00:59:52;;;;;;;5.80;3.00;;;;;;;13.68;84.24;101858.84;700355;28;1631;-53
2021/08/24 01:00:13;;;;;;;5.65;3.13;;;;;;;13.66;84.81;101863.22;700041;28;1464;-57
2021/08/24 01:00:34;;;;;;;6.07;3.00;;;;;;;13.66;84.31;101857.09;696500;28;1804;-58
2021/08/24 01:00:55;;;;;;;5.18;2.95;;;;;;;13.67;84.16;101864.13;697763;28;4375;-53
2021/08/24 01:01:16;;;;;;;5.00;3.17;;;;;;;13.60;83.61;101857.97;699837;28;4025;-53
2021/08/24 01:01:36;;;;;;;5.13;3.03;;;;;;;13.61;84.41;101860.59;699612;28;4708;-56
2021/08/24 01:01:56;;;;;;;5.47;3.10;;;;;;;13.61;83.90;101859.72;699237;28;1550;-57
2021/08/24 01:02:19;;;;;;;4.93;2.97;;;;;;;13.58;84.33;101860.59;699515;28;1560;-58
2021/08/24 01:02:40;;;;;;;5.18;3.15;;;;;;;13.54;84.43;101864.09;699983;28;1133;-57
2021/08/24 01:03:07;;;;;;;5.90;3.23;;;;;;;13.55;84.30;101860.56;701154;28;1434;-57
2021/08/24 01:03:34;;;;;;;5.50;2.97;;;;;;;13.60;85.04;101863.22;699731;28;1193;-54
2021/08/24 01:03:55;;;;;;;5.40;2.97;;;;;;;13.56;84.65;101856.22;699289;28;4553;-56
2021/08/24 01:04:19;;;;;;;4.70;3.00;;;;;;;13.56;84.85;101864.09;698406;28;4271;-55
2021/08/24 01:04:39;;;;;;;5.05;3.15;;;;;;;13.57;84.74;101858.84;699901;28;1593;-56
2021/08/24 01:04:59;;;;;;;5.55;3.20;;;;;;;13.55;84.33;101854.44;697015;28;1565;-52
2021/08/24 01:05:20;;;;;;;4.83;3.13;;;;;;;13.53;84.39;101862.31;695063;28;1457;-56
2021/08/24 01:05:43;;;;;;;5.60;3.17;;;;;;;13.53;84.56;101857.06;694984;28;1474;-55
2021/08/24 01:06:16;;;;;;;5.72;3.20;;;;;;;13.53;84.45;101857.06;695623;28;1057;-55
2021/08/24 01:06:44;;;;;;;6.00;3.30;;;;;;;13.51;84.57;101855.31;697096;28;1766;-55
2021/08/24 01:07:24;;;;;;;4.95;3.00;;;;;;;13.54;84.53;101861.47;698326;28;4478;-57
2021/08/24 01:07:54;;;;;;;6.07;3.40;;;;;;;13.55;84.25;101862.31;699667;28;1532;-56
2021/08/24 01:08:38;;;;;;;5.60;3.30;;;;;;;13.61;84.17;101855.34;699871;28;1724;-54
2021/08/24 01:09:42;;;;;;;5.75;2.90;;;;;;;13.58;83.43;101857.97;700271;28;1618;-58
2021/08/24 01:10:22;;;;;;;5.40;3.08;;;;;;;13.44;83.47;101857.03;691366;28;4556;-55
2021/08/24 01:10:53;;;;;;;4.57;3.00;;;;;;;13.42;84.17;101862.28;692141;28;1783;-55
2021/08/24 01:11:23;;;;;;;6.40;3.20;;;;;;;13.47;84.00;101862.28;692062;28;1216;-54
2021/08/24 01:12:02;;;;;;;6.38;3.28;;;;;;;13.50;84.40;101856.16;692332;28;1861;-56
2021/08/24 01:12:35;;;;;;;6.30;3.00;;;;;;;13.50;84.34;101862.31;691695;28;1493;-53
2021/08/24 01:13:07;;;;;;;5.32;2.92;;;;;;;13.50;84.12;101859.69;699249;28;4460;-54
2021/08/24 01:13:35;;;;;;;4.65;2.95;;;;;;;13.50;84.56;101859.69;699434;28;1437;-55
2021/08/24 01:14:01;;;;;;;5.97;3.20;;;;;;;13.47;83.85;101861.44;700038;28;1725;-56
2021/08/24 01:14:55;;;;;;;5.30;3.08;;;;;;;13.54;84.15;101863.19;700675;28;1431;-53
2021/08/24 01:15:25;;;;;;;5.43;3.10;;;;;;;13.45;84.12;101866.69;700955;28;1726;-53
2021/08/24 01:15:58;;;;;;;4.97;2.95;;;;;;;13.40;84.74;101864.06;700069;28;1499;-55
2021/08/24 01:16:30;;;;;;;5.55;2.90;;;;;;;13.44;84.43;101864.91;698201;28;5168;-55
2021/08/24 01:17:05;;;;;;;5.22;3.10;;;;;;;13.47;85.54;101856.16;698694;28;1662;-56
2021/08/24 01:17:33;;;;;;;5.53;3.00;;;;;;;13.40;84.50;101860.53;698627;28;1396;-56
2021/08/24 01:18:26;;;;;;;5.45;3.20;;;;;;;13.42;84.51;101869.31;699315;28;1541;-54
2021/08/24 01:19:01;;;;;;;6.22;3.00;;;;;;;13.36;84.32;101864.91;700199;28;1276;-56
2021/08/24 01:19:52;;;;;;;4.97;2.80;;;;;;;13.42;84.47;101861.44;697555;28;5772;-56
2021/08/24 01:20:44;;;;;;;6.05;3.35;;;;;;;13.44;84.21;101859.66;700189;28;1654;-55
2021/08/24 01:21:32;;;;;;;5.80;3.10;;;;;;;13.51;84.48;101864.06;700404;28;2227;-54
2021/08/24 01:22:25;;;;;;;5.32;3.10;;;;;;;13.43;83.43;101868.41;698635;28;4435;-53
2021/08/24 01:23:03;;;;;;;6.47;3.10;;;;;;;13.40;83.88;101863.16;699449;28;1687;-53
2021/08/24 01:23:38;;;;;;;5.78;2.88;;;;;;;13.44;84.02;101859.66;700162;28;1169;-53
2021/08/24 01:24:20;;;;;;;6.32;3.10;;;;;;;13.44;84.33;101857.03;700413;28;1926;-55
2021/08/24 01:25:05;;;;;;;4.60;2.90;;;;;;;13.40;83.82;101864.06;699677;28;1526;-54
2021/08/24 01:25:32;;;;;;;4.95;3.00;;;;;;;13.41;84.86;101852.66;698481;28;5114;-56
2021/08/24 01:26:16;;;;;;;4.40;2.80;;;;;;;13.37;84.42;101861.41;700333;28;2231;-55
2021/08/24 01:26:47;;;;;;;6.40;3.00;;;;;;;13.43;84.61;101868.41;700447;28;1554;-57
2021/08/24 01:27:12;;;;;;;5.13;3.03;;;;;;;13.46;84.40;101860.56;699648;28;1525;-53
2021/08/24 01:27:54;;;;;;;5.63;3.10;;;;;;;13.49;84.31;101865.81;699622;28;1775;-56
2021/08/24 01:28:53;;;;;;;5.38;3.30;;;;;;;13.43;84.42;101857.91;698771;28;4938;-53
2021/08/24 01:29:35;;;;;;;6.30;3.10;;;;;;;13.47;84.02;101857.03;698143;28;1869;-53
2021/08/24 01:30:07;;;;;;;4.72;3.05;;;;;;;13.44;84.12;101859.66;699872;28;1427;-55
2021/08/24 01:30:56;;;;;;;6.25;3.10;;;;;;;13.41;84.05;101867.53;700335;28;1172;-56
2021/08/24 01:31:52;;;;;;;5.28;3.03;;;;;;;13.29;84.10;101858.72;699053;28;4753;-57
2021/08/24 01:32:21;;;;;;;4.95;3.00;;;;;;;13.34;84.50;101871.00;700326;28;1455;-56
2021/08/24 01:33:06;;;;;;;5.85;3.13;;;;;;;13.37;84.92;101866.66;700810;28;1584;-55
2021/08/24 01:33:40;;;;;;;5.82;3.03;;;;;;;13.32;84.97;101856.97;700653;28;1734;-54
2021/08/24 01:34:09;;;;;;;5.22;3.00;;;;;;;13.33;84.28;101869.25;698706;28;4336;-58
2021/08/24 01:34:51;;;;;;;7.43;3.38;;;;;;;13.36;84.59;101864.03;698467;28;1244;-57
2021/08/24 01:35:43;;;;;;;5.30;2.90;;;;;;;13.35;84.04;101863.16;699454;28;1432;-56
2021/08/24 01:36:12;;;;;;;5.35;3.00;;;;;;;13.35;84.08;101871.03;699346;28;1977;-56
2021/08/24 01:36:42;;;;;;;5.88;2.90;;;;;;;13.36;83.89;101866.66;700281;28;1651;-55
2021/08/24 01:37:08;;;;;;;5.50;2.90;;;;;;;13.34;83.72;101865.75;699405;28;4592;-57
2021/08/24 01:37:52;;;;;;;5.57;3.00;;;;;;;13.35;84.00;101868.41;698928;28;1748;-57
2021/08/24 01:38:23;;;;;;;5.07;3.15;;;;;;;13.33;84.12;101867.47;701974;28;1468;-56
2021/08/24 01:38:52;;;;;;;6.15;2.95;;;;;;;13.37;83.99;101871.91;700267;28;1276;-57
2021/08/24 01:39:27;;;;;;;6.38;3.00;;;;;;;13.36;84.36;101864.03;699304;28;1338;-56
2021/08/24 01:39:59;;;;;;;7.00;3.00;;;;;;;13.36;84.28;101869.28;699236;28;4147;-58
2021/08/24 01:40:39;;;;;;;5.13;3.00;;;;;;;13.30;84.86;101864.84;698862;28;4749;-54
2021/08/24 01:41:11;;;;;;;5.63;2.90;;;;;;;13.35;84.71;101867.50;700146;28;1612;-56
2021/08/24 01:41:34;;;;;;;5.03;3.00;;;;;;;13.38;85.05;101867.53;699302;28;1586;-57
2021/08/24 01:42:07;;;;;;;5.72;3.30;;;;;;;13.36;85.14;101871.91;700434;28;1356;-55
2021/08/24 01:42:31;;;;;;;7.60;3.10;;;;;;;13.36;84.77;101864.91;699587;28;1502;-57
2021/08/24 01:42:52;;;;;;;5.30;3.05;;;;;;;13.38;84.94;101872.81;699631;28;4639;-57
2021/08/24 01:43:18;;;;;;;4.20;2.80;;;;;;;13.36;85.32;101874.53;698599;28;1811;-53
2021/08/24 01:43:56;;;;;;;6.53;2.95;;;;;;;13.32;84.32;101871.00;698270;28;1332;-55
2021/08/24 01:44:20;;;;;;;5.30;3.00;;;;;;;13.38;84.62;101867.53;699750;28;1395;-56
2021/08/24 01:44:51;;;;;;;4.82;3.00;;;;;;;13.35;84.16;101870.13;700430;28;1061;-58
2021/08/24 01:45:21;;;;;;;5.75;3.00;;;;;;;13.35;84.27;101867.50;700125;28;1506;-55
2021/08/24 01:45:59;;;;;;;5.03;2.95;;;;;;;13.36;84.51;101866.66;700126;28;4010;-56
2021/08/24 01:46:40;;;;;;;5.40;3.10;;;;;;;13.37;84.41;101871.03;699652;28;4923;-56
2021/08/24 01:47:09;;;;;;;5.00;2.95;;;;;;;13.26;83.98;101869.22;699550;28;1528;-57
2021/08/24 01:47:48;;;;;;;5.43;3.00;;;;;;;13.27;85.60;101867.47;700187;28;1407;-56
2021/08/24 01:48:22;;;;;;;5.50;3.00;;;;;;;13.21;84.46;101870.06;700189;28;1489;-57
2021/08/24 01:48:48;;;;;;;5.95;3.22;;;;;;;13.26;84.79;101866.59;699267;28;4441;-56
2021/08/24 01:49:11;;;;;;;6.25;3.08;;;;;;;13.28;84.89;101867.47;699024;28;4416;-57
2021/08/24 01:49:45;;;;;;;5.78;3.20;;;;;;;13.23;84.78;101863.94;699867;28;1696;-53
2021/08/24 01:50:11;;;;;;;4.60;2.80;;;;;;;13.26;85.33;101860.47;698644;28;1478;-58
2021/08/24 01:50:39;;;;;;;4.43;2.92;;;;;;;13.31;85.19;101871.00;699861;28;1442;-53
2021/08/24 01:51:07;;;;;;;6.05;2.97;;;;;;;13.26;84.75;101861.34;698670;28;1545;-57
2021/08/24 01:51:33;;;;;;;5.57;2.92;;;;;;;13.23;84.42;101863.94;699645;28;4058;-57
2021/08/24 01:51:56;;;;;;;4.80;3.13;;;;;;;13.24;84.26;101868.34;697977;28;4570;-56
2021/08/24 01:52:20;;;;;;;5.03;2.95;;;;;;;13.27;85.16;101868.34;696676;28;1212;-56
2021/08/24 01:52:53;;;;;;;5.18;3.00;;;;;;;13.25;84.17;101867.47;696335;28;1545;-57
2021/08/24 01:53:31;;;;;;;5.78;2.90;;;;;;;13.26;84.40;101863.97;696360;28;1285;-55
2021/08/24 01:53:57;;;;;;;6.00;3.20;;;;;;;13.27;84.60;101867.47;697058;28;1061;-54
2021/08/24 01:54:30;;;;;;;5.28;3.33;;;;;;;13.27;84.37;101865.72;695901;28;1407;-57
2021/08/24 01:55:00;;;;;;;5.38;3.08;;;;;;;13.22;84.72;101870.09;697060;28;4048;-54
2021/08/24 01:55:27;;;;;;;6.18;2.80;;;;;;;13.26;84.56;101865.72;695441;28;4866;-57
2021/08/24 01:55:52;;;;;;;6.88;2.88;;;;;;;13.21;84.52;101865.72;697578;28;1478;-55
2021/08/24 01:56:18;;;;;;;4.93;2.95;;;;;;;13.25;84.16;101863.94;697192;28;1910;-55
2021/08/24 01:56:39;;;;;;;6.10;2.90;;;;;;;13.23;83.87;101866.56;697480;28;1423;-54
2021/08/24 01:57:01;;;;;;;5.75;2.90;;;;;;;13.22;84.26;101862.22;697886;28;1355;-54
2021/08/24 01:57:30;;;;;;;5.22;3.10;;;;;;;13.27;85.55;101864.84;697462;28;3984;-52
2021/08/24 01:57:56;;;;;;;4.90;3.13;;;;;;;13.27;84.65;101864.84;695524;28;4661;-52
2021/08/24 01:58:22;;;;;;;5.53;3.03;;;;;;;13.27;84.51;101865.72;699615;28;1467;-55
2021/08/24 01:58:49;;;;;;;5.82;2.90;;;;;;;13.30;85.28;101864.84;700426;28;2194;-56
2021/08/24 01:59:15;;;;;;;4.97;2.80;;;;;;;13.30;84.59;101870.09;698499;28;1594;-53
2021/08/24 01:59:59;;;;;;;7.28;3.03;;;;;;;13.34;85.07;101865.75;700646;28;1591;-56
2021/08/24 02:00:19;;;;;;;5.20;2.80;;;;;;;13.34;84.78;101866.63;696307;28;1213;-54
2021/08/24 02:00:45;;;;;;;6.30;3.00;;;;;;;13.38;84.53;101867.53;696385;28;4360;-57
2021/08/24 02:01:10;;;;;;;5.25;2.83;;;;;;;13.38;84.15;101873.66;696054;28;4593;-56
2021/08/24 02:01:34;;;;;;;5.68;3.05;;;;;;;13.40;84.07;101871.94;695750;28;2003;-56
2021/08/24 02:02:09;;;;;;;5.18;2.97;;;;;;;13.37;83.79;101865.78;696880;28;1742;-56
2021/08/24 02:02:36;;;;;;;5.47;2.88;;;;;;;13.38;83.98;101872.81;696228;28;1558;-55
2021/08/24 02:03:01;;;;;;;7.18;2.80;;;;;;;13.35;82.80;101872.75;695890;28;1029;-57
2021/08/24 02:03:45;;;;;;;6.13;2.83;;;;;;;13.29;83.09;101863.09;697168;28;4002;-54
2021/08/24 02:04:13;;;;;;;5.22;2.92;;;;;;;13.30;84.59;101867.47;696198;28;4511;-52
2021/08/24 02:04:55;;;;;;;5.10;2.85;;;;;;;13.28;84.07;101872.72;699976;28;1693;-56
2021/08/24 02:05:23;;;;;;;5.35;2.90;;;;;;;13.27;84.49;101868.34;700261;28;1564;-55
2021/08/24 02:05:48;;;;;;;5.32;2.80;;;;;;;13.25;84.84;101872.72;700419;28;1267;-55